Time;durP1;ratioP1;P1;durP2;ratioP2;P2;SDS_P1;SDS_P2;PMS_P1;PMS_P2;Temp;Humidity;BMP_temperature;BMP_pressure;BME280_temperature;BME280_humidity;BME280_pressure;Samples;Min_cycle;Max_cycle;Signal;HPM_P1;HPM_P2
2022/07/03 03:42:08;;;;;;;;;;;;;;;;;;;;;
2022/07/03 03:48:07;;;;;;;;;;;;;;;14.51;94.98;99775.63;6037909;23;19942;-94
2022/07/03 03:50:43;;;;;;;;;;;;;;;13.94;92.95;99778.91;6038186;23;20012;-94
2022/07/03 03:53:40;;;;;;;;;;;;;;;13.60;89.58;99778.16;6038208;23;19925;-92
2022/07/03 04:01:55;;;;;;;;;;;;;;;14.42;95.00;99785.97;6152837;23;19939;-88
2022/07/03 04:04:24;;;;;;;;;;;;;;;13.79;91.35;99793.13;6259732;22;19911;-91
2022/07/03 04:06:55;;;;;;;;;;;;;;;14.14;93.44;99792.94;6262934;22;19915;-95
2022/07/03 04:16:32;;;;;;;;;;;;;;;;;;;;;
2022/07/03 04:19:46;;;;;;;;;;;;;;;;;;;;;
2022/07/03 04:47:05;;;;;;;;;;;;;;;14.34;95.40;99813.06;6240201;22;19923;-92
2022/07/03 12:40:28;;;;;;;;;;;;;;;15.48;93.88;99694.13;6270521;22;19923;-87
2022/07/03 12:42:54;;;;;;;;;;;;;;;15.72;95.59;99698.81;6280470;22;19993;-87
2022/07/03 12:45:24;;;;;;;;;;;;;;;15.42;92.90;99682.00;6279650;22;20287;-88
2022/07/03 12:48:02;;;;;;;;;;;;;;;15.69;94.50;99689.19;6280313;22;20242;-87
2022/07/03 12:50:47;;;;;;;;;;;;;;;16.02;94.54;99673.72;6307177;22;19973;-88
2022/07/03 12:53:25;;;;;;;;;;;;;;;15.63;93.39;99681.56;6278690;22;19918;-89
2022/07/03 12:55:53;;;;;;;;;;;;;;;15.94;94.01;99663.56;6279812;22;19911;-88
2022/07/03 13:01:06;;;;;;;;;;;;;;;15.83;93.99;99682.09;6273502;22;19933;-89
2022/07/03 13:06:58;;;;;;;;;;;;;;;15.76;93.23;99677.19;6233431;22;19915;-87
2022/07/03 13:09:24;;;;;;;;;;;;;;;15.95;94.11;99670.59;6272076;22;19964;-89
2022/07/03 13:11:49;;;;;;;;;;;;;;;15.57;92.62;99676.63;6273628;22;19934;-87
2022/07/03 13:14:16;;;;;;;;;;;;;;;15.61;94.56;99679.00;6273307;22;19911;-88
2022/07/03 13:16:42;;;;;;;;;;;;;;;15.94;94.97;99668.91;6247386;22;19911;-88
2022/07/03 13:19:11;;;;;;;;;;;;;;;15.64;92.84;99659.25;6247653;22;20289;-88
2022/07/03 13:21:44;;;;;;;;;;;;;;;15.80;93.89;99654.63;6247507;22;20412;-88
2022/07/03 13:24:11;;;;;;;;;;;;;;;15.86;93.75;99658.72;6278641;22;19968;-88
2022/07/03 13:26:36;;;;;;;;;;;;;;;15.66;93.62;99660.00;6306823;22;19911;-88
2022/07/03 13:29:02;;;;;;;;;;;;;;;16.08;93.54;99650.13;6279173;22;19918;-87
2022/07/03 13:31:51;;;;;;;;;;;;;;;15.63;91.01;99657.53;6306951;22;19918;-87
2022/07/03 13:34:17;;;;;;;;;;;;;;;15.64;93.65;99664.59;6279790;22;19933;-88
2022/07/03 13:36:42;;;;;;;;;;;;;;;15.84;93.57;99659.78;6307009;22;20392;-87
2022/07/03 13:39:29;;;;;;;;;;;;;;;15.49;92.18;99662.94;6305699;22;19985;-89
2022/07/03 13:42:10;;;;;;;;;;;;;;;;;;;;;
2022/07/03 13:44:36;;;;;;;;;;;;;;;15.74;91.05;99651.50;6306635;22;19990;-87
2022/07/03 13:47:01;;;;;;;;;;;;;;;15.78;91.39;99656.56;6306947;22;19957;-87
2022/07/03 13:49:26;;;;;;;;;;;;;;;15.91;91.68;99656.59;6279288;22;19907;-87
2022/07/03 13:51:55;;;;;;;;;;;;;;;15.58;89.94;99651.66;6306659;22;19911;-88
2022/07/03 13:54:20;;;;;;;;;;;;;;;15.78;91.90;99650.38;6305098;22;19918;-87
2022/07/03 13:56:45;;;;;;;;;;;;;;;16.02;91.47;99655.00;6279293;22;19907;-88
2022/07/03 13:59:13;;;;;;;;;;;;;;;15.67;89.39;99648.38;6306335;22;19915;-88
2022/07/03 14:01:38;;;;;;;;;;;;;;;15.83;92.05;99650.91;6278971;22;19914;-89
2022/07/03 14:04:11;;;;;;;;;;;;;;;15.84;92.37;99646.41;6306538;22;20250;-88
2022/07/03 14:06:39;;;;;;;;;;;;;;;15.50;91.71;99657.47;6279283;22;19926;-88
2022/07/03 14:09:14;;;;;;;;;;;;;;;15.79;92.46;99652.94;6277814;22;19915;-88
2022/07/03 14:11:39;;;;;;;;;;;;;;;15.49;90.07;99654.91;6279471;22;19918;-88
2022/07/03 14:14:06;;;;;;;;;;;;;;;15.60;91.03;99653.28;6279751;22;19915;-87
2022/07/03 14:16:31;;;;;;;;;;;;;;;15.87;91.39;99646.22;6279214;22;19917;-87
2022/07/03 14:19:05;;;;;;;;;;;;;;;15.48;89.18;99642.53;6306701;22;19982;-86
2022/07/03 14:21:30;;;;;;;;;;;;;;;15.74;90.56;99636.31;6278928;22;20339;-87
2022/07/03 14:23:56;;;;;;;;;;;;;;;16.17;89.48;99633.44;6277823;22;19921;-87
2022/07/03 14:32:28;;;;;;;;;;;;;;;15.68;88.14;99636.72;6306950;22;19911;-87
2022/07/03 14:34:38;;;;;;;;;;;;;;;15.84;88.94;99633.91;6306402;22;19958;-87
2022/07/03 14:37:03;;;;;;;;;;;;;;;16.12;88.77;99640.91;6306483;22;19914;-87
2022/07/03 14:39:29;;;;;;;;;;;;;;;15.67;87.33;99640.38;6304645;22;19958;-87
2022/07/03 14:41:56;;;;;;;;;;;;;;;15.98;88.19;99643.69;6307701;22;19957;-86
2022/07/03 14:44:24;;;;;;;;;;;;;;;16.12;88.01;99651.59;6280942;22;19918;-87
2022/07/03 14:46:52;;;;;;;;;;;;;;;15.84;87.19;99649.09;6308887;22;20310;-87
2022/07/03 14:49:21;;;;;;;;;;;;;;;16.04;87.65;99650.44;6308496;22;19962;-86
2022/07/03 14:51:47;;;;;;;;;;;;;;;15.89;85.48;99652.31;6281380;22;20001;-87
2022/07/03 14:54:16;;;;;;;;;;;;;;;15.88;87.45;99647.94;6307226;22;19922;-88
2022/07/03 14:56:47;;;;;;;;;;;;;;;16.21;86.87;99643.91;6280921;22;19911;-87
2022/07/03 14:59:32;;;;;;;;;;;;;;;15.82;84.83;99659.03;6308529;22;19911;-88
2022/07/03 15:01:58;;;;;;;;;;;;;;;16.08;87.46;99655.47;6279051;22;19915;-87
2022/07/03 15:04:42;;;;;;;;;;;;;;;16.26;86.76;99652.50;6308383;22;19915;-88
2022/07/03 15:07:07;;;;;;;;;;;;;;;15.94;86.41;99648.38;6255322;22;20006;-87
2022/07/03 15:09:37;;;;;;;;;;;;;;;16.23;87.54;99642.03;6279501;22;19950;-88
2022/07/03 15:12:28;;;;;;;;;;;;;;;15.90;84.82;99638.84;6280908;22;19950;-88
2022/07/03 15:14:53;;;;;;;;;;;;;;;16.07;87.64;99637.72;6308311;22;19915;-88
2022/07/03 15:17:22;;;;;;;;;;;;;;;16.42;87.19;99637.09;6280883;22;19917;-88
2022/07/03 15:20:03;;;;;;;;;;;;;;;15.79;86.26;99631.56;6280395;22;20382;-87
2022/07/03 15:22:29;;;;;;;;;;;;;;;16.04;89.28;99632.56;6280808;22;20310;-88
2022/07/03 15:24:55;;;;;;;;;;;;;;;15.99;88.31;99629.38;6306944;22;19914;-88
2022/07/03 15:27:25;;;;;;;;;;;;;;;15.98;88.61;99624.97;6281173;22;20268;-89
2022/07/03 15:29:53;;;;;;;;;;;;;;;16.59;87.77;99619.84;6280634;22;19922;-89
2022/07/03 15:32:19;;;;;;;;;;;;;;;16.23;85.19;99637.53;6281049;22;19922;-89
2022/07/03 15:35:06;;;;;;;;;;;;;;;;;;;;;
2022/07/03 15:37:38;;;;;;;;;;;;;;;16.56;88.62;99625.44;6307928;22;19993;-88
2022/07/03 15:40:09;;;;;;;;;;;;;;;16.13;87.44;99631.06;6278939;22;19930;-89
2022/07/03 15:42:57;;;;;;;;;;;;;;;16.50;88.67;99626.72;6281047;22;19990;-88
2022/07/03 15:45:35;;;;;;;;;;;;;;;16.44;87.40;99628.97;6278984;22;20330;-88
2022/07/03 15:48:33;;;;;;;;;;;;;;;16.36;88.42;99620.63;6280178;22;19965;-89
2022/07/03 15:51:01;;;;;;;;;;;;;;;16.42;89.17;99625.53;6213430;22;19922;-88
2022/07/03 15:53:33;;;;;;;;;;;;;;;15.86;88.52;99624.00;6278316;22;19922;-89
2022/07/03 15:56:02;;;;;;;;;;;;;;;16.36;89.50;99621.47;6280367;22;19963;-89
2022/07/03 15:58:32;;;;;;;;;;;;;;;16.37;88.02;99625.88;6280849;22;19934;-88
2022/07/03 16:04:17;;;;;;;;;;;;;;;16.45;88.83;99609.28;6307697;22;19922;-87
2022/07/03 16:07:22;;;;;;;;;;;;;;;;;;;;;
2022/07/03 16:09:48;;;;;;;;;;;;;;;16.29;89.16;99609.50;6205368;22;19994;-88
2022/07/03 16:12:20;;;;;;;;;;;;;;;15.99;86.21;99613.34;6307807;22;20338;-88
2022/07/03 16:14:49;;;;;;;;;;;;;;;16.07;88.92;99618.16;6280895;22;20307;-88
2022/07/03 16:17:18;;;;;;;;;;;;;;;16.48;88.21;99614.41;6307611;22;19914;-88
2022/07/03 16:20:17;;;;;;;;;;;;;;;16.11;85.96;99612.47;6280592;22;20335;-89
2022/07/03 16:23:04;;;;;;;;;;;;;;;;;;;;;
2022/07/03 16:25:49;;;;;;;;;;;;;;;16.33;85.87;99619.88;6306673;22;19989;-90
2022/07/03 16:31:29;;;;;;;;;;;;;;;16.57;87.91;99612.94;6307571;22;19989;-90
2022/07/03 16:34:14;;;;;;;;;;;;;;;16.11;87.29;99612.47;6292211;22;20315;-88
2022/07/03 16:36:51;;;;;;;;;;;;;;;;;;;;;
2022/07/03 16:39:33;;;;;;;;;;;;;;;16.17;85.46;99617.41;6306240;22;20382;-89
2022/07/03 16:42:19;;;;;;;;;;;;;;;16.43;88.12;99616.56;6280462;22;19911;-89
2022/07/03 16:44:49;;;;;;;;;;;;;;;16.49;88.24;99611.63;6279539;22;19910;-90
2022/07/03 16:47:15;;;;;;;;;;;;;;;16.22;87.76;99608.22;6306974;22;19911;-89
2022/07/03 16:49:40;;;;;;;;;;;;;;;16.76;87.81;99616.00;6279610;22;19910;-88
2022/07/03 16:52:09;;;;;;;;;;;;;;;16.50;86.46;99616.03;6279690;22;19922;-88
2022/07/03 16:54:36;;;;;;;;;;;;;;;16.45;88.05;99615.50;6304300;22;19915;-87
2022/07/03 16:57:05;;;;;;;;;;;;;;;16.78;88.76;99619.41;6279083;22;19915;-88
2022/07/03 16:59:31;;;;;;;;;;;;;;;16.26;86.79;99625.78;6279526;22;19914;-86
2022/07/03 17:01:57;;;;;;;;;;;;;;;16.58;89.11;99622.63;6279649;22;19919;-87
2022/07/03 17:04:35;;;;;;;;;;;;;;;16.83;88.97;99624.44;6306209;22;20327;-87
2022/07/03 17:07:00;;;;;;;;;;;;;;;16.38;88.01;99624.91;6278981;22;20346;-86
2022/07/03 17:09:26;;;;;;;;;;;;;;;16.68;89.41;99626.38;6305748;22;19910;-86
2022/07/03 17:11:53;;;;;;;;;;;;;;;16.78;88.66;99623.91;6279688;22;19911;-86
2022/07/03 17:14:19;;;;;;;;;;;;;;;16.48;88.96;99622.44;6307020;22;19906;-86
2022/07/03 17:16:59;;;;;;;;;;;;;;;16.69;90.16;99628.97;6307201;22;19972;-87
2022/07/03 17:19:25;;;;;;;;;;;;;;;16.34;86.97;99629.63;6279068;22;19911;-87
2022/07/03 17:21:51;;;;;;;;;;;;;;;16.58;89.92;99625.31;6279180;22;19907;-86
2022/07/03 17:24:20;;;;;;;;;;;;;;;16.86;89.96;99622.44;6306025;22;19914;-88
2022/07/03 17:26:49;;;;;;;;;;;;;;;16.36;88.68;99631.34;6306462;22;20017;-84
2022/07/03 17:29:19;;;;;;;;;;;;;;;16.76;90.55;99626.69;6279477;22;19911;-86
2022/07/03 17:31:48;;;;;;;;;;;;;;;16.88;89.24;99633.00;6280065;22;19911;-88
2022/07/03 17:34:14;;;;;;;;;;;;;;;16.51;89.53;99631.13;6307043;22;19914;-87
2022/07/03 17:36:43;;;;;;;;;;;;;;;16.87;90.73;99632.16;6279274;22;19915;-86
2022/07/03 17:39:09;;;;;;;;;;;;;;;16.55;88.36;99633.59;6304493;22;19921;-85
2022/07/03 17:41:35;;;;;;;;;;;;;;;16.45;91.33;99634.22;6306088;22;19915;-88
2022/07/03 17:44:03;;;;;;;;;;;;;;;16.77;92.08;99635.56;6279188;22;19921;-85
2022/07/03 17:46:29;;;;;;;;;;;;;;;16.36;89.75;99636.69;6306769;22;19921;-85
2022/07/03 17:49:01;;;;;;;;;;;;;;;16.82;91.20;99644.16;6306706;22;19911;-87
2022/07/03 17:51:35;;;;;;;;;;;;;;;16.91;90.53;99639.97;6279546;22;20225;-86
2022/07/03 17:54:00;;;;;;;;;;;;;;;16.51;90.31;99646.28;6305338;22;19957;-87
2022/07/03 17:56:27;;;;;;;;;;;;;;;16.81;91.42;99647.78;6306594;22;19915;-85
2022/07/03 17:58:56;;;;;;;;;;;;;;;16.49;89.39;99646.41;6306589;22;20285;-87
2022/07/03 18:01:22;;;;;;;;;;;;;;;16.67;91.48;99651.41;6307096;22;20575;-87
2022/07/03 18:03:47;;;;;;;;;;;;;;;17.00;91.50;99644.69;6279630;22;19911;-87
2022/07/03 18:06:22;;;;;;;;;;;;;;;16.52;89.79;99643.50;6306642;22;19984;-87
2022/07/03 18:08:54;;;;;;;;;;;;;;;16.78;91.28;99648.00;6277268;22;20243;-87
2022/07/03 18:11:35;;;;;;;;;;;;;;;16.87;90.92;99640.19;6306731;22;20299;-84
2022/07/03 18:14:00;;;;;;;;;;;;;;;16.67;91.52;99643.41;6279403;22;19915;-85
2022/07/03 18:21:56;;;;;;;;;;;;;;;17.60;87.45;99651.88;6292973;22;19923;-92
2022/07/03 18:53:46;;;;;;;;;;;;;;;;;;;;;
2022/07/03 18:56:36;;;;;;;;;;;;;;;;;;;;;
2022/07/03 19:01:34;;;;;;;;;;;;;;;15.75;81.06;99683.44;6274520;22;19919;-91
2022/07/03 19:06:37;;;;;;;;;;;;;;;15.39;78.67;99687.53;6253662;22;19943;-91
2022/07/03 19:14:44;;;;;;;;;;;;;;;15.72;83.46;99707.69;6274807;22;19942;-92
2022/07/03 19:17:22;;;;;;;;;;;;;;;16.14;84.11;99708.47;6280501;22;19937;-91
2022/07/03 19:19:53;;;;;;;;;;;;;;;15.66;81.91;99707.22;6279523;22;19923;-91
2022/07/03 19:28:15;;;;;;;;;;;;;;;15.63;86.75;99713.63;6279312;22;19957;-92
2022/07/03 19:30:45;;;;;;;;;;;;;;;16.40;87.00;99727.28;6280639;22;19945;-91
2022/07/03 19:33:11;;;;;;;;;;;;;;;15.70;85.11;99730.09;6281327;22;20238;-91
2022/07/03 19:35:36;;;;;;;;;;;;;;;16.26;85.00;99727.34;6283258;22;19918;-92
2022/07/03 19:41:07;;;;;;;;;;;;;;;15.70;79.97;99736.31;6290007;22;19926;-92
2022/07/03 19:43:36;;;;;;;;;;;;;;;15.91;79.87;99743.91;6275995;22;20365;-92
2022/07/03 19:51:44;;;;;;;;;;;;;;;15.80;77.19;99756.16;6257590;22;19934;-94
2022/07/03 19:54:10;;;;;;;;;;;;;;;15.07;77.73;99759.81;6280285;22;19921;-92
2022/07/03 19:59:32;;;;;;;;;;;;;;;15.28;75.10;99772.78;6276305;22;20237;-92
2022/07/03 20:01:58;;;;;;;;;;;;;;;15.29;78.86;99773.66;6275870;22;19927;-90
2022/07/03 20:22:14;;;;;;;;;;;;;;;15.43;81.74;99813.72;6276393;22;19926;-90
2022/07/03 20:24:42;;;;;;;;;;;;;;;15.88;80.87;99822.44;6275151;22;19919;-93
2022/07/03 20:27:11;;;;;;;;;;;;;;;15.02;80.82;99820.63;6276792;22;19918;-90
2022/07/03 20:32:58;;;;;;;;;;;;;;;;;;;;;
2022/07/03 20:35:49;;;;;;;;;;;;;;;15.49;84.51;99834.66;6270730;22;20018;-92
2022/07/03 20:41:17;;;;;;;;;;;;;;;15.90;84.66;99825.88;6309814;22;19929;-89
2022/07/03 21:14:43;;;;;;;;;;;;;;;14.51;76.14;99842.28;6260822;22;19949;-90
2022/07/03 21:17:17;;;;;;;;;;;;;;;15.12;78.53;99842.28;6248459;22;19915;-90
2022/07/03 21:20:27;;;;;;;;;;;;;;;15.15;77.52;99847.41;6249143;22;19915;-89
2022/07/03 21:22:56;;;;;;;;;;;;;;;14.89;79.46;99843.69;6275632;22;19919;-89
2022/07/03 21:34:10;;;;;;;;;;;;;;;14.92;80.17;99856.84;6276265;22;19922;-90
2022/07/03 21:36:42;;;;;;;;;;;;;;;14.96;82.58;99857.50;6274278;22;19907;-90
2022/07/03 21:44:55;;;;;;;;;;;;;;;15.19;85.30;99858.75;6271119;22;20234;-90
2022/07/03 21:47:29;;;;;;;;;;;;;;;15.10;82.92;99856.69;6249280;22;19965;-90
2022/07/03 21:55:49;;;;;;;;;;;;;;;14.86;84.37;99865.19;6274435;22;19919;-90
2022/07/03 22:07:44;;;;;;;;;;;;;;;15.08;85.10;99876.28;6242739;22;19946;-88
2022/07/03 22:10:34;;;;;;;;;;;;;;;15.38;88.69;99869.16;6273306;22;19998;-89
2022/07/03 22:21:23;;;;;;;;;;;;;;;14.96;86.50;99878.84;6273493;22;19967;-90
